Terminal Aerodrome Forecast
Issued by NWS Buffalo, NY

Home | Current Version | Previous Version | Text Only | Print | Product List | Glossary On
Versions: 1 2 3 4 5 6 7 8 9 10 11 12 13 14 15 16 17 18 19 20 21 22 23 24 25
000
FTUS41 KBUF 251500 AAA
TAFROC
TAF AMD
KROC 251505Z 2515/2612 23012G20KT P6SM SCT040 BKN060
     FM251900 25018G31KT P6SM SCT030 BKN045
     FM252300 26015G25KT P6SM SCT040 BKN200
     FM260200 27014KT P6SM BKN070
     FM260600 28016KT P6SM BKN035=

USA.gov is the U.S. government's official web portal to all federal, state and local government web resources and services.